Time;durP1;ratioP1;P1;durP2;ratioP2;P2;SDS_P1;SDS_P2;PMS_P1;PMS_P2;Temp;Humidity;BMP_temperature;BMP_pressure;BME280_temperature;BME280_humidity;BME280_pressure;Samples;Min_cycle;Max_cycle;Signal;HPM_P1;HPM_P2
2021/12/14 00:04:01;;;;;;;111.23;9.40;;;;;6.50;97324.00;;;;8396408;28;20273;-72
2021/12/14 00:08:06;;;;;;;162.10;10.37;;;;;6.40;97322.00;;;;8385030;28;20224;-72
2021/12/14 00:12:26;;;;;;;108.10;9.00;;;;;6.50;97317.00;;;;8384284;28;20259;-72
2021/12/14 00:16:29;;;;;;;43.70;7.17;;;;;6.40;97310.00;;;;8375558;28;20275;-72
2021/12/14 00:20:39;;;;;;;16.97;6.33;;;;;6.50;97306.00;;;;8385260;28;20258;-72
2021/12/14 00:24:46;;;;;;;15.03;5.73;;;;;6.60;97296.00;;;;8385205;28;20269;-72
2021/12/14 00:28:51;;;;;;;20.90;6.17;;;;;6.60;97288.00;;;;8384417;28;20316;-73
2021/12/14 00:32:54;;;;;;;84.53;8.03;;;;;6.60;97286.00;;;;8385455;28;20237;-72
2021/12/14 00:36:59;;;;;;;95.77;8.40;;;;;6.60;97286.00;;;;8387794;28;20274;-72
2021/12/14 00:41:06;;;;;;;17.23;5.37;;;;;6.50;97296.00;;;;8385965;28;20262;-72
2021/12/14 00:45:10;;;;;;;13.80;5.03;;;;;6.50;97300.00;;;;8383170;28;20267;-72
2021/12/14 00:49:14;;;;;;;80.80;6.87;;;;;6.60;97303.00;;;;8384113;28;20305;-72
2021/12/14 00:53:19;;;;;;;17.97;5.37;;;;;6.60;97308.00;;;;8376740;28;20251;-72
2021/12/14 00:57:22;;;;;;;18.40;5.03;;;;;6.70;97302.00;;;;8375571;28;20946;-72
2021/12/14 01:01:29;;;;;;;60.13;6.30;;;;;6.80;97304.00;;;;8385804;28;20224;-72
2021/12/14 01:05:36;;;;;;;14.13;5.10;;;;;6.80;97298.00;;;;8383602;28;20227;-73
2021/12/14 01:09:45;;;;;;;29.13;6.10;;;;;6.70;97298.00;;;;8387716;28;20740;-73
2021/12/14 01:13:56;;;;;;;112.63;7.97;;;;;6.70;97304.00;;;;8390747;28;20750;-73
2021/12/14 01:18:16;;;;;;;43.40;5.53;;;;;6.80;97306.00;;;;8383544;28;20265;-72
2021/12/14 01:22:37;;;;;;;65.03;5.83;;;;;6.70;97315.00;;;;8377588;28;20219;-73
2021/12/14 01:26:43;;;;;;;109.80;7.20;;;;;6.70;97313.00;;;;8386425;28;20306;-72
2021/12/14 01:30:58;;;;;;;43.30;5.97;;;;;6.70;97324.00;;;;8394950;28;20642;-72
2021/12/14 01:35:05;;;;;;;19.03;4.80;;;;;6.70;97323.00;;;;8384370;28;20251;-72
2021/12/14 01:39:44;;;;;;;10.53;4.17;;;;;6.70;97309.00;;;;8377060;28;20240;-72
2021/12/14 01:43:51;;;;;;;11.00;4.27;;;;;6.60;97309.00;;;;8384114;28;20243;-72
2021/12/14 01:47:57;;;;;;;14.77;4.53;;;;;6.60;97313.00;;;;8388002;28;20678;-73
2021/12/14 01:52:05;;;;;;;23.57;7.00;;;;;6.60;97300.00;;;;8384273;28;20327;-72
2021/12/14 01:56:11;;;;;;;96.13;7.00;;;;;6.60;97305.00;;;;8377757;28;20232;-73
2021/12/14 02:00:22;;;;;;;103.80;7.67;;;;;6.60;97308.00;;;;8383382;28;20245;-74
2021/12/14 02:04:28;;;;;;;116.17;6.93;;;;;6.60;97302.00;;;;8386003;28;20319;-73
2021/12/14 02:08:35;;;;;;;97.83;7.03;;;;;6.60;97308.00;;;;8384455;28;20223;-73
2021/12/14 02:12:41;;;;;;;22.70;5.00;;;;;6.70;97301.00;;;;8386677;28;20263;-74
2021/12/14 02:16:49;;;;;;;82.77;5.70;;;;;6.70;97301.00;;;;8378737;28;20585;-73
2021/12/14 02:20:56;;;;;;;127.83;6.97;;;;;6.60;97292.00;;;;8383973;28;20634;-73
2021/12/14 02:25:00;;;;;;;101.70;7.00;;;;;6.70;97297.00;;;;8380711;28;20622;-74
2021/12/14 02:29:05;;;;;;;42.03;5.07;;;;;6.70;97298.00;;;;8389163;28;20802;-74
2021/12/14 02:33:15;;;;;;;85.53;6.27;;;;;6.70;97298.00;;;;8379337;28;20339;-72
2021/12/14 02:37:23;;;;;;;28.90;4.80;;;;;6.70;97294.00;;;;8381836;28;20337;-74
2021/12/14 02:41:26;;;;;;;43.10;5.27;;;;;6.60;97288.00;;;;8380797;28;20266;-73
2021/12/14 02:45:29;;;;;;;47.70;5.07;;;;;6.60;97285.00;;;;8370233;28;20279;-72
2021/12/14 02:49:35;;;;;;;33.27;5.00;;;;;6.50;97285.00;;;;8384371;28;20656;-72
2021/12/14 02:53:41;;;;;;;67.33;5.63;;;;;6.50;97286.00;;;;8382958;28;20256;-73
2021/12/14 02:57:47;;;;;;;169.50;9.20;;;;;6.40;97300.00;;;;8378364;28;20311;-73
2021/12/14 03:01:52;;;;;;;106.30;6.80;;;;;6.40;97294.00;;;;8417366;23;20881;-73
2021/12/14 03:05:59;;;;;;;128.07;8.13;;;;;6.40;97295.00;;;;8364395;28;20288;-73
2021/12/14 03:10:19;;;;;;;70.93;6.97;;;;;6.40;97293.00;;;;8381470;28;20263;-73
2021/12/14 03:14:22;;;;;;;11.77;4.67;;;;;6.30;97298.00;;;;8385829;28;20318;-73
2021/12/14 03:18:28;;;;;;;8.97;4.30;;;;;6.30;97295.00;;;;8385540;28;20311;-73
2021/12/14 03:22:36;;;;;;;15.67;4.70;;;;;6.30;97298.00;;;;8382456;28;20306;-74
2021/12/14 03:26:43;;;;;;;18.17;4.67;;;;;6.30;97289.00;;;;8397206;28;20259;-73
2021/12/14 03:30:56;;;;;;;31.90;5.20;;;;;6.30;97277.00;;;;8383298;28;20832;-73
2021/12/14 03:34:59;;;;;;;69.07;5.83;;;;;6.30;97274.00;;;;8379056;28;20928;-73
2021/12/14 03:39:11;;;;;;;106.80;7.13;;;;;6.30;97277.00;;;;8398183;28;20247;-72
2021/12/14 03:43:16;;;;;;;21.83;4.30;;;;;6.30;97281.00;;;;8395042;28;20227;-73
2021/12/14 03:47:25;;;;;;;13.30;4.13;;;;;6.30;97272.00;;;;8362546;28;20240;-73
2021/12/14 03:51:29;;;;;;;10.83;3.93;;;;;6.30;97269.00;;;;8378933;28;20246;-73
2021/12/14 03:55:36;;;;;;;11.20;4.10;;;;;6.30;97271.00;;;;8390923;28;20258;-73
2021/12/14 03:59:41;;;;;;;19.70;5.03;;;;;6.40;97279.00;;;;8395194;28;20226;-73
2021/12/14 04:03:45;;;;;;;26.20;5.40;;;;;6.50;97279.00;;;;8380625;28;20266;-74
2021/12/14 04:07:49;;;;;;;21.03;4.70;;;;;6.50;97276.00;;;;8374949;28;20306;-74
2021/12/14 04:11:53;;;;;;;16.80;4.57;;;;;6.50;97270.00;;;;8384811;28;20267;-73
2021/12/14 04:15:58;;;;;;;125.17;9.30;;;;;6.50;97272.00;;;;8373506;28;20318;-73
2021/12/14 04:20:01;;;;;;;27.33;4.63;;;;;6.50;97262.00;;;;8383490;28;20240;-73
2021/12/14 04:24:06;;;;;;;102.07;7.23;;;;;6.40;97264.00;;;;8392478;28;20267;-73
2021/12/14 04:28:13;;;;;;;16.03;4.20;;;;;6.40;97262.00;;;;8405009;28;20779;-72
2021/12/14 04:32:20;;;;;;;24.83;4.33;;;;;6.40;97267.00;;;;8407815;28;20322;-73
2021/12/14 04:36:27;;;;;;;7.97;3.67;;;;;6.40;97258.00;;;;8378185;28;20623;-73
2021/12/14 04:51:55;;;;;;;6.03;3.37;;;;;6.30;97262.00;;;;8392277;28;20252;-73
2021/12/14 04:53:58;;;;;;;8.93;2.80;;;;;6.00;97238.00;;;;8406616;28;20343;-75
2021/12/14 04:58:02;;;;;;;3.93;2.37;;;;;6.00;97244.00;;;;8387703;28;20226;-75
2021/12/14 05:02:13;;;;;;;6.93;2.60;;;;;5.90;97244.00;;;;8405268;28;20262;-74
2021/12/14 05:06:21;;;;;;;8.53;3.27;;;;;5.90;97236.00;;;;8385599;28;20247;-75
2021/12/14 05:10:25;;;;;;;5.40;3.10;;;;;5.90;97239.00;;;;8378476;28;20227;-74
2021/12/14 05:14:30;;;;;;;5.80;2.90;;;;;5.90;97230.00;;;;8383392;28;20257;-72
2021/12/14 05:18:33;;;;;;;13.60;3.10;;;;;5.90;97227.00;;;;8390032;28;20252;-71
2021/12/14 05:22:42;;;;;;;9.53;3.47;;;;;5.90;97231.00;;;;8389007;28;20298;-72
2021/12/14 05:26:49;;;;;;;9.23;2.83;;;;;5.90;97223.00;;;;8378666;28;20318;-72
2021/12/14 05:30:54;;;;;;;8.27;3.37;;;;;5.80;97225.00;;;;8389687;28;21197;-72
2021/12/14 05:34:57;;;;;;;5.53;2.60;;;;;5.80;97234.00;;;;8381208;28;20312;-72
2021/12/14 05:39:16;;;;;;;5.60;3.17;;;;;5.80;97226.00;;;;8364450;28;20223;-73
2021/12/14 05:43:26;;;;;;;7.60;3.03;;;;;5.80;97218.00;;;;8376965;28;20247;-69
2021/12/14 05:47:30;;;;;;;8.07;3.00;;;;;5.80;97224.00;;;;8382711;28;20622;-75
2021/12/14 05:51:34;;;;;;;6.40;2.57;;;;;5.80;97206.00;;;;8371512;28;20235;-73
2021/12/14 05:55:41;;;;;;;3.27;2.50;;;;;5.80;97197.00;;;;8369372;28;20645;-76
2021/12/14 05:59:45;;;;;;;7.50;3.20;;;;;5.80;97206.00;;;;8389136;28;20319;-72
2021/12/14 06:03:53;;;;;;;12.10;3.10;;;;;5.70;97207.00;;;;8379829;28;20320;-72
2021/12/14 06:07:59;;;;;;;19.77;3.33;;;;;5.70;97199.00;;;;8364665;28;20260;-73
2021/12/14 06:12:08;;;;;;;14.50;3.30;;;;;5.60;97203.00;;;;8389476;28;20554;-72
2021/12/14 06:16:24;;;;;;;48.20;4.10;;;;;5.60;97203.00;;;;8386051;28;20322;-75
2021/12/14 06:20:28;;;;;;;147.33;10.17;;;;;5.60;97200.00;;;;8392483;28;20216;-71
2021/12/14 06:24:34;;;;;;;110.33;6.53;;;;;5.50;97199.00;;;;8385594;28;20248;-71
2021/12/14 06:28:39;;;;;;;76.80;4.93;;;;;5.50;97194.00;;;;8388449;28;20242;-70
2021/12/14 06:32:45;;;;;;;127.10;7.40;;;;;5.50;97196.00;;;;8371597;28;20334;-73
2021/12/14 06:37:23;;;;;;;96.90;5.23;;;;;5.40;97203.00;;;;8378056;28;20274;-71
2021/12/14 06:41:26;;;;;;;131.00;8.83;;;;;5.40;97195.00;;;;8368206;28;20310;-74
2021/12/14 06:45:33;;;;;;;89.63;6.13;;;;;5.40;97207.00;;;;8379553;28;20705;-74
2021/12/14 06:49:37;;;;;;;256.47;14.97;;;;;5.40;97216.00;;;;8384747;28;20242;-74
2021/12/14 06:53:41;;;;;;;164.97;8.63;;;;;5.40;97222.00;;;;8386739;28;20599;-69
2021/12/14 06:57:44;;;;;;;156.87;7.70;;;;;5.30;97217.00;;;;8388358;28;20235;-70
2021/12/14 07:01:55;;;;;;;156.13;21.60;;;;;5.30;97210.00;;;;8394114;28;20269;-73
2021/12/14 07:05:59;;;;;;;545.43;157.37;;;;;5.40;97213.00;;;;8373468;28;20281;-70
2021/12/14 07:10:04;;;;;;;363.10;59.27;;;;;5.30;97218.00;;;;8364236;28;20224;-73
2021/12/14 07:14:23;;;;;;;104.90;12.40;;;;;5.30;97222.00;;;;8371202;28;20315;-75
2021/12/14 07:18:31;;;;;;;555.77;149.47;;;;;5.30;97226.00;;;;8377331;28;20224;-71
2021/12/14 07:22:40;;;;;;;1054.53;357.80;;;;;5.30;97236.00;;;;8367689;28;20249;-70
2021/12/14 07:26:44;;;;;;;789.53;296.80;;;;;5.30;97238.00;;;;8382792;28;20311;-76
2021/12/14 07:30:51;;;;;;;245.03;73.00;;;;;5.30;97225.00;;;;8368198;28;20220;-75
2021/12/14 07:35:13;;;;;;;200.90;78.27;;;;;5.40;97215.00;;;;8367478;28;20281;-73
2021/12/14 07:39:19;;;;;;;174.30;51.93;;;;;5.50;97211.00;;;;8386710;28;20334;-71
2021/12/14 07:43:26;;;;;;;227.17;50.17;;;;;5.50;97201.00;;;;8374669;28;20308;-75
2021/12/14 07:47:30;;;;;;;227.63;37.73;;;;;5.60;97202.00;;;;8395685;28;20314;-72
2021/12/14 07:51:38;;;;;;;119.60;30.47;;;;;5.60;97207.00;;;;8369616;28;20225;-73
2021/12/14 07:55:45;;;;;;;194.23;17.37;;;;;5.70;97214.00;;;;8392749;28;20819;-69
2021/12/14 07:59:51;;;;;;;355.20;30.77;;;;;5.70;97211.00;;;;8387491;28;20250;-70
2021/12/14 08:04:05;;;;;;;135.93;15.97;;;;;5.80;97214.00;;;;8381475;28;20231;-72
2021/12/14 08:08:16;;;;;;;147.53;21.27;;;;;5.80;97219.00;;;;8390296;28;20315;-72
2021/12/14 08:12:35;;;;;;;143.53;14.60;;;;;5.80;97209.00;;;;8384115;28;20220;-72
2021/12/14 08:16:41;;;;;;;107.70;22.67;;;;;5.80;97222.00;;;;8391014;28;20278;-71
2021/12/14 08:20:48;;;;;;;128.77;12.63;;;;;5.80;97205.00;;;;8383152;28;20676;-71
2021/12/14 08:24:54;;;;;;;145.03;14.57;;;;;5.80;97211.00;;;;8394679;28;20319;-72
2021/12/14 08:29:01;;;;;;;121.80;7.30;;;;;5.90;97219.00;;;;8387679;28;20819;-73
2021/12/14 08:33:05;;;;;;;180.60;8.33;;;;;5.80;97216.00;;;;8386902;28;20298;-74
2021/12/14 08:37:11;;;;;;;37.03;4.77;;;;;5.80;97225.00;;;;8382236;28;20238;-75
2021/12/14 08:41:21;;;;;;;41.43;4.70;;;;;5.70;97231.00;;;;8384822;28;20254;-73
2021/12/14 08:45:28;;;;;;;25.50;4.67;;;;;5.70;97221.00;;;;8391979;28;20315;-75
2021/12/14 08:49:31;;;;;;;116.07;7.50;;;;;5.70;97243.00;;;;8386422;28;20265;-71
2021/12/14 08:53:36;;;;;;;206.07;13.17;;;;;5.70;97216.00;;;;8374740;28;20326;-73
2021/12/14 08:57:42;;;;;;;41.10;4.13;;;;;5.70;97218.00;;;;8373928;28;20315;-72
2021/12/14 09:01:48;;;;;;;27.03;4.67;;;;;5.70;97206.00;;;;8389035;28;20270;-72
2021/12/14 09:05:53;;;;;;;23.93;4.00;;;;;5.70;97223.00;;;;8387608;28;20228;-74
2021/12/14 09:09:58;;;;;;;15.37;3.93;;;;;5.60;97234.00;;;;8387432;28;20323;-73
2021/12/14 09:14:04;;;;;;;19.47;4.47;;;;;5.60;97233.00;;;;8375936;28;20321;-73
2021/12/14 09:18:08;;;;;;;13.67;3.40;;;;;5.60;97242.00;;;;8389017;28;20641;-75
2021/12/14 09:22:16;;;;;;;6.80;2.97;;;;;5.60;97257.00;;;;8381824;28;20341;-74
2021/12/14 09:26:23;;;;;;;19.10;3.70;;;;;5.50;97248.00;;;;8389487;28;20252;-74
2021/12/14 09:30:37;;;;;;;7.07;2.37;;;;;5.50;97255.00;;;;8385471;28;20766;-73
2021/12/14 09:34:45;;;;;;;5.03;2.67;;;;;5.50;97263.00;;;;8387758;28;20323;-71
2021/12/14 09:38:52;;;;;;;20.40;4.23;;;;;5.50;97255.00;;;;8384982;28;20626;-71
2021/12/14 09:42:56;;;;;;;11.13;3.43;;;;;5.40;97247.00;;;;8386766;28;20265;-74
2021/12/14 09:47:09;;;;;;;11.63;3.53;;;;;5.40;97254.00;;;;8379819;28;20680;-75
2021/12/14 09:51:17;;;;;;;15.40;4.20;;;;;5.40;97243.00;;;;8363237;28;20558;-71
2021/12/14 09:55:27;;;;;;;13.27;3.80;;;;;5.50;97230.00;;;;8376365;28;20254;-74
2021/12/14 09:59:30;;;;;;;8.57;3.80;;;;;5.60;97207.00;;;;8369163;28;20227;-78
2021/12/14 10:03:36;;;;;;;10.77;3.20;;;;;5.70;97198.00;;;;8367658;28;20266;-70
2021/12/14 10:07:39;;;;;;;7.27;2.90;;;;;5.60;97205.00;;;;8376829;28;20252;-70
2021/12/14 10:11:59;;;;;;;5.07;2.97;;;;;5.50;97203.00;;;;8380687;28;20255;-74
2021/12/14 10:16:05;;;;;;;6.73;3.43;;;;;5.60;97209.00;;;;8377525;28;20255;-70
2021/12/14 10:20:16;;;;;;;6.47;2.73;;;;;5.60;97213.00;;;;8373742;28;20220;-74
2021/12/14 10:24:19;;;;;;;9.30;2.43;;;;;5.60;97234.00;;;;8368229;28;20248;-73
2021/12/14 10:28:27;;;;;;;5.97;2.87;;;;;5.50;97236.00;;;;8389416;28;20262;-75
2021/12/14 10:32:35;;;;;;;36.00;17.70;;;;;5.50;97255.00;;;;8386696;28;20307;-72
2021/12/14 10:36:43;;;;;;;12.83;6.30;;;;;5.40;97246.00;;;;8383093;28;20302;-72
2021/12/14 10:45:15;;;;;;;6.90;2.53;;;;;5.40;97257.00;;;;8368504;28;20234;-74
2021/12/14 10:49:22;;;;;;;5.30;2.53;;;;;5.40;97248.00;;;;8363853;28;20253;-73
2021/12/14 10:53:27;;;;;;;9.20;4.07;;;;;5.50;97243.00;;;;8374057;28;20306;-79
2021/12/14 10:57:33;;;;;;;12.83;5.80;;;;;5.50;97232.00;;;;8389010;28;20558;-74
2021/12/14 11:01:48;;;;;;;30.63;10.20;;;;;5.70;97223.00;;;;8388258;28;20250;-79
2021/12/14 11:05:54;;;;;;;12.77;5.20;;;;;5.80;97227.00;;;;8383280;28;20224;-71
2021/12/14 11:10:10;;;;;;;8.23;3.10;;;;;5.90;97236.00;;;;8391237;28;21008;-72
2021/12/14 11:14:18;;;;;;;7.10;2.87;;;;;5.80;97227.00;;;;8369862;28;20262;-77
2021/12/14 11:18:25;;;;;;;4.73;2.80;;;;;5.70;97235.00;;;;8382624;28;20250;-71
2021/12/14 11:22:31;;;;;;;9.50;3.53;;;;;5.70;97224.00;;;;8388959;28;20728;-76
2021/12/14 11:26:36;;;;;;;11.73;3.43;;;;;5.80;97219.00;;;;8383581;28;20925;-81
2021/12/14 11:30:45;;;;;;;10.97;3.07;;;;;5.90;97232.00;;;;8374475;28;20274;-71
2021/12/14 11:34:49;;;;;;;10.33;3.20;;;;;5.80;97249.00;;;;8367990;28;20255;-75
2021/12/14 11:38:57;;;;;;;18.00;3.63;;;;;5.90;97233.00;;;;8374683;28;20315;-71
2021/12/14 11:43:16;;;;;;;9.03;3.60;;;;;5.90;97218.00;;;;8375346;28;20665;-82
2021/12/14 11:47:41;;;;;;;11.27;3.50;;;;;5.90;97223.00;;;;8384602;28;20295;-75
2021/12/14 11:51:45;;;;;;;6.87;3.43;;;;;5.90;97205.00;;;;8384131;28;20618;-71
2021/12/14 11:55:51;;;;;;;12.27;3.67;;;;;6.10;97204.00;;;;8378360;28;20326;-73
2021/12/14 12:00:06;;;;;;;7.73;3.00;;;;;6.20;97210.00;;;;8379600;28;20317;-76
2021/12/14 12:04:13;;;;;;;6.63;3.47;;;;;6.20;97216.00;;;;8385263;28;20779;-72
2021/12/14 12:12:40;;;;;;;10.03;3.50;;;;;6.00;97229.00;;;;8365690;28;20224;-74
2021/12/14 12:16:45;;;;;;;11.70;4.87;;;;;6.20;97229.00;;;;8378648;28;20233;-76
2021/12/14 12:20:49;;;;;;;6.80;3.17;;;;;6.40;97234.00;;;;8379162;28;20233;-78
2021/12/14 12:24:56;;;;;;;8.87;3.70;;;;;6.20;97215.00;;;;8372787;28;20217;-71
2021/12/14 12:29:06;;;;;;;13.23;4.27;;;;;6.20;97207.00;;;;8379116;28;21003;-76
2021/12/14 12:33:27;;;;;;;7.30;3.63;;;;;6.40;97202.00;;;;8370115;28;20612;-77
2021/12/14 12:37:42;;;;;;;13.50;4.00;;;;;6.50;97186.00;;;;8370199;28;20331;-77
2021/12/14 12:41:48;;;;;;;11.43;4.00;;;;;6.50;97183.00;;;;8373955;28;20335;-73
2021/12/14 12:46:00;;;;;;;12.97;4.80;;;;;6.60;97181.00;;;;8368695;28;20243;-71
2021/12/14 12:50:06;;;;;;;11.23;4.13;;;;;6.70;97193.00;;;;8382314;28;20231;-72
2021/12/14 12:54:21;;;;;;;14.77;4.30;;;;;6.70;97195.00;;;;8382969;28;20724;-75
2021/12/14 12:58:24;;;;;;;12.30;4.50;;;;;6.70;97213.00;;;;8378999;28;20366;-73
2021/12/14 13:02:30;;;;;;;13.17;4.77;;;;;6.60;97198.00;;;;8389250;28;20718;-72
2021/12/14 13:06:35;;;;;;;13.97;4.63;;;;;6.50;97187.00;;;;8377078;28;20692;-71
2021/12/14 13:10:41;;;;;;;10.50;5.13;;;;;6.50;97179.00;;;;8391496;28;20270;-71
2021/12/14 13:14:44;;;;;;;17.10;5.00;;;;;6.50;97186.00;;;;8375465;28;20231;-70
2021/12/14 13:18:54;;;;;;;10.93;3.97;;;;;6.60;97182.00;;;;8386861;28;20263;-71
2021/12/14 13:22:59;;;;;;;11.73;4.90;;;;;6.60;97175.00;;;;8389511;28;20270;-75
2021/12/14 13:27:06;;;;;;;9.13;4.00;;;;;6.60;97190.00;;;;8385220;28;20593;-73
2021/12/14 13:31:09;;;;;;;11.20;4.10;;;;;6.50;97186.00;;;;8386099;28;20231;-72
2021/12/14 13:35:18;;;;;;;12.57;4.53;;;;;6.40;97185.00;;;;8396383;28;20245;-71
2021/12/14 13:39:24;;;;;;;16.43;4.67;;;;;6.50;97189.00;;;;8378957;28;20267;-72
2021/12/14 13:43:39;;;;;;;12.43;4.53;;;;;6.50;97188.00;;;;8375792;28;20653;-73
2021/12/14 13:47:44;;;;;;;11.40;4.40;;;;;6.50;97193.00;;;;8381659;28;20310;-74
2021/12/14 13:51:47;;;;;;;13.17;4.00;;;;;6.50;97187.00;;;;8372780;28;20233;-74
2021/12/14 13:55:53;;;;;;;11.17;4.17;;;;;6.50;97193.00;;;;8384976;28;20223;-77
2021/12/14 13:59:56;;;;;;;8.70;4.07;;;;;6.50;97206.00;;;;8374145;28;20649;-72
2021/12/14 14:04:04;;;;;;;15.13;4.90;;;;;6.50;97220.00;;;;8387286;28;20327;-74
2021/12/14 14:08:11;;;;;;;13.00;4.97;;;;;6.50;97230.00;;;;8387543;28;20220;-74
2021/12/14 14:12:19;;;;;;;16.30;4.57;;;;;6.60;97243.00;;;;8390109;28;20231;-74
2021/12/14 14:16:22;;;;;;;11.07;4.10;;;;;6.50;97239.00;;;;8384107;28;20247;-72
2021/12/14 14:20:37;;;;;;;15.60;5.03;;;;;6.40;97259.00;;;;8374579;28;20235;-74
2021/12/14 14:24:43;;;;;;;13.33;4.47;;;;;6.50;97261.00;;;;8389004;28;20244;-74
2021/12/14 14:28:52;;;;;;;15.53;5.33;;;;;6.50;97261.00;;;;8384500;28;20311;-73
2021/12/14 14:33:00;;;;;;;14.23;5.43;;;;;6.50;97268.00;;;;8373734;28;20224;-74
2021/12/14 14:37:10;;;;;;;16.10;5.63;;;;;6.50;97278.00;;;;8380987;28;20231;-77
2021/12/14 14:41:36;;;;;;;25.47;8.13;;;;;6.50;97270.00;;;;8388174;28;20307;-73
2021/12/14 14:45:44;;;;;;;15.23;5.60;;;;;6.50;97274.00;;;;8384533;28;20228;-73
2021/12/14 14:50:16;;;;;;;37.77;16.43;;;;;6.50;97278.00;;;;8383989;28;20239;-73
2021/12/14 14:54:50;;;;;;;19.40;6.73;;;;;6.50;97279.00;;;;8374527;28;20311;-74
2021/12/14 14:58:53;;;;;;;16.70;7.60;;;;;6.40;97274.00;;;;8379647;28;20329;-72
2021/12/14 15:03:01;;;;;;;20.33;5.97;;;;;6.40;97278.00;;;;8390246;28;20322;-75
2021/12/14 15:07:07;;;;;;;15.83;6.53;;;;;6.40;97282.00;;;;8368984;28;20231;-73
2021/12/14 15:11:21;;;;;;;18.97;8.50;;;;;6.40;97290.00;;;;8383796;28;20301;-73
2021/12/14 15:15:28;;;;;;;26.33;8.63;;;;;6.40;97291.00;;;;8385734;28;20266;-73
2021/12/14 15:19:37;;;;;;;24.07;8.03;;;;;6.50;97295.00;;;;8383904;28;20255;-73
2021/12/14 15:23:40;;;;;;;19.53;7.00;;;;;6.50;97295.00;;;;8387024;28;20258;-72
2021/12/14 15:27:55;;;;;;;21.97;7.87;;;;;6.50;97292.00;;;;8391564;28;20306;-72
2021/12/14 15:32:17;;;;;;;20.13;8.07;;;;;6.40;97287.00;;;;8384041;28;20763;-74
2021/12/14 15:36:26;;;;;;;23.90;10.30;;;;;6.40;97292.00;;;;8375315;28;20253;-72
2021/12/14 15:40:48;;;;;;;20.40;5.67;;;;;6.30;97288.00;;;;8388840;28;20228;-76
2021/12/14 15:44:52;;;;;;;18.43;5.73;;;;;6.30;97290.00;;;;8384114;28;20214;-74
2021/12/14 15:49:15;;;;;;;21.37;5.13;;;;;6.30;97296.00;;;;8390082;28;20249;-76
2021/12/14 15:53:23;;;;;;;25.63;8.90;;;;;6.30;97281.00;;;;8363466;28;20255;-73
2021/12/14 15:57:26;;;;;;;22.17;5.77;;;;;6.20;97287.00;;;;8383494;28;20251;-73
2021/12/14 16:01:34;;;;;;;19.10;5.73;;;;;6.20;97294.00;;;;8382370;28;20234;-74
2021/12/14 16:05:38;;;;;;;100.53;39.83;;;;;6.20;97299.00;;;;8380732;28;20231;-74
2021/12/14 16:09:47;;;;;;;271.63;131.87;;;;;6.20;97290.00;;;;8362636;28;20746;-75
2021/12/14 16:18:21;;;;;;;64.97;9.30;;;;;6.20;97293.00;;;;8381662;28;20247;-74
2021/12/14 16:22:28;;;;;;;37.93;7.37;;;;;6.20;97295.00;;;;8386677;28;20270;-78
2021/12/14 16:26:33;;;;;;;41.30;11.80;;;;;6.20;97308.00;;;;8391920;28;20224;-75
2021/12/14 16:30:40;;;;;;;51.87;8.60;;;;;6.20;97305.00;;;;8387555;28;20274;-77
2021/12/14 16:34:44;;;;;;;49.10;9.53;;;;;6.20;97314.00;;;;8389011;28;20242;-75
2021/12/14 16:38:51;;;;;;;35.10;8.20;;;;;6.10;97314.00;;;;8390841;28;20297;-79
2021/12/14 16:42:56;;;;;;;36.60;8.40;;;;;6.10;97316.00;;;;8397550;28;20255;-76
2021/12/14 16:47:05;;;;;;;57.60;10.37;;;;;6.10;97329.00;;;;8388623;28;20310;-77
2021/12/14 16:51:12;;;;;;;47.23;10.33;;;;;6.00;97333.00;;;;8390153;28;20234;-82
2021/12/14 16:55:19;;;;;;;54.90;15.87;;;;;6.00;97338.00;;;;8380717;28;20251;-77
2021/12/14 16:59:27;;;;;;;51.83;14.57;;;;;6.00;97342.00;;;;8362084;28;20654;-77
2021/12/14 17:03:33;;;;;;;44.77;15.27;;;;;6.00;97336.00;;;;8399140;28;20227;-77
2021/12/14 17:07:40;;;;;;;64.60;18.43;;;;;6.00;97337.00;;;;8401293;28;20290;-78
2021/12/14 17:11:46;;;;;;;58.47;9.67;;;;;6.10;97331.00;;;;8399956;28;20848;-77
2021/12/14 17:15:53;;;;;;;43.87;9.53;;;;;6.00;97338.00;;;;8397855;28;20235;-77
2021/12/14 17:20:00;;;;;;;102.73;12.43;;;;;6.00;97343.00;;;;8391753;28;20319;-78
2021/12/14 17:24:08;;;;;;;67.53;11.53;;;;;5.90;97341.00;;;;8368057;28;20243;-72
2021/12/14 17:28:11;;;;;;;91.27;12.87;;;;;5.90;97352.00;;;;8381862;28;20247;-71
2021/12/14 17:32:18;;;;;;;49.20;8.37;;;;;5.80;97350.00;;;;8381661;28;20239;-71
2021/12/14 17:36:26;;;;;;;68.07;9.57;;;;;5.70;97344.00;;;;8383897;28;20237;-73
2021/12/14 17:40:32;;;;;;;47.60;9.70;;;;;5.70;97334.00;;;;8353050;28;20271;-72
2021/12/14 17:44:38;;;;;;;100.97;11.37;;;;;5.70;97339.00;;;;8392961;28;20803;-72
2021/12/14 17:48:43;;;;;;;50.03;8.70;;;;;5.70;97343.00;;;;8380955;28;20325;-72
2021/12/14 17:52:50;;;;;;;65.13;8.67;;;;;5.60;97349.00;;;;8402884;28;20248;-72
2021/12/14 17:57:16;;;;;;;89.00;9.77;;;;;5.60;97348.00;;;;8383564;28;20301;-73
2021/12/14 18:01:23;;;;;;;47.50;8.17;;;;;5.60;97354.00;;;;8385205;28;20258;-75
2021/12/14 18:05:31;;;;;;;56.70;8.67;;;;;5.60;97358.00;;;;8390642;28;20230;-72
2021/12/14 18:09:35;;;;;;;39.83;9.43;;;;;5.50;97356.00;;;;8388063;28;20273;-75
2021/12/14 18:13:57;;;;;;;31.17;8.17;;;;;5.60;97362.00;;;;8367399;28;20287;-74
2021/12/14 18:22:29;;;;;;;19.37;6.13;;;;;5.50;97375.00;;;;8345588;28;20696;-75
2021/12/14 18:26:37;;;;;;;17.43;5.43;;;;;5.50;97383.00;;;;8361694;28;20226;-73
2021/12/14 18:30:42;;;;;;;21.43;6.77;;;;;5.50;97376.00;;;;8376222;28;20309;-75
2021/12/14 18:34:47;;;;;;;25.20;6.50;;;;;5.50;97384.00;;;;8364207;28;20265;-73
2021/12/14 18:39:02;;;;;;;16.50;6.70;;;;;5.50;97387.00;;;;8385290;28;20310;-72
2021/12/14 18:43:07;;;;;;;21.47;6.57;;;;;5.50;97390.00;;;;8365766;28;20265;-73
2021/12/14 18:47:17;;;;;;;28.27;6.67;;;;;5.50;97399.00;;;;8386392;28;20357;-72
2021/12/14 18:51:21;;;;;;;21.53;6.20;;;;;5.50;97391.00;;;;8391479;28;20306;-74
2021/12/14 18:55:29;;;;;;;15.00;5.73;;;;;5.50;97388.00;;;;8376052;28;20317;-72
2021/12/14 18:59:38;;;;;;;36.10;6.53;;;;;5.50;97376.00;;;;8370438;28;20318;-76
2021/12/14 19:03:44;;;;;;;34.93;6.90;;;;;5.50;97380.00;;;;8348951;28;20234;-73
2021/12/14 19:07:55;;;;;;;27.97;8.87;;;;;5.40;97380.00;;;;8377398;28;20228;-72
2021/12/14 19:12:04;;;;;;;33.90;9.57;;;;;5.40;97389.00;;;;8391139;28;20369;-74
2021/12/14 19:16:13;;;;;;;23.27;7.33;;;;;5.40;97394.00;;;;8376303;28;20338;-72
2021/12/14 19:20:30;;;;;;;26.60;7.47;;;;;5.50;97390.00;;;;8385245;28;20729;-74
2021/12/14 19:24:35;;;;;;;29.13;7.97;;;;;5.50;97393.00;;;;8378108;28;20243;-77
2021/12/14 19:28:46;;;;;;;24.17;7.73;;;;;5.50;97393.00;;;;8383137;28;20318;-75
2021/12/14 19:32:53;;;;;;;22.37;7.63;;;;;5.50;97389.00;;;;8372230;28;20224;-72
2021/12/14 19:36:56;;;;;;;27.00;8.37;;;;;5.50;97389.00;;;;8391752;28;20229;-72
2021/12/14 19:41:03;;;;;;;24.40;7.20;;;;;5.50;97390.00;;;;8409205;28;20314;-75
2021/12/14 19:45:12;;;;;;;20.63;6.57;;;;;5.50;97395.00;;;;8377465;28;20228;-75
2021/12/14 19:49:22;;;;;;;24.37;8.60;;;;;5.50;97394.00;;;;8395330;28;20581;-73
2021/12/14 19:53:30;;;;;;;23.63;7.47;;;;;5.50;97404.00;;;;8389727;28;20248;-72
2021/12/14 19:57:38;;;;;;;21.17;6.53;;;;;5.60;97399.00;;;;8407884;28;20231;-77
2021/12/14 20:01:44;;;;;;;22.93;7.10;;;;;5.60;97398.00;;;;8372684;28;20639;-75
2021/12/14 20:05:52;;;;;;;23.73;7.07;;;;;5.50;97407.00;;;;8370110;28;20216;-73
2021/12/14 20:09:57;;;;;;;17.73;6.33;;;;;5.60;97417.00;;;;8415726;28;20258;-73
2021/12/14 20:14:05;;;;;;;20.43;6.93;;;;;5.60;97415.00;;;;8385399;28;20223;-72
2021/12/14 20:18:13;;;;;;;28.47;7.30;;;;;5.60;97412.00;;;;8386134;28;20664;-73
2021/12/14 20:22:17;;;;;;;20.80;6.53;;;;;5.60;97428.00;;;;8382393;28;20208;-72
2021/12/14 20:26:24;;;;;;;18.23;6.77;;;;;5.50;97437.00;;;;8406957;28;20908;-72
2021/12/14 20:30:28;;;;;;;22.87;6.83;;;;;5.50;97432.00;;;;8381659;28;20287;-74
2021/12/14 20:34:37;;;;;;;17.47;6.90;;;;;5.50;97432.00;;;;8404692;28;20717;-74
2021/12/14 20:38:43;;;;;;;22.43;6.90;;;;;5.50;97434.00;;;;8408475;28;20231;-75
2021/12/14 20:42:56;;;;;;;22.27;6.97;;;;;5.50;97424.00;;;;8390834;28;20227;-71
2021/12/14 20:47:01;;;;;;;22.17;6.30;;;;;5.40;97426.00;;;;8390443;28;20227;-73
2021/12/14 20:51:11;;;;;;;36.73;8.20;;;;;5.50;97417.00;;;;8385198;28;20668;-72
2021/12/14 20:55:19;;;;;;;25.33;7.67;;;;;5.60;97422.00;;;;8400365;28;20240;-76
2021/12/14 20:59:31;;;;;;;28.63;7.53;;;;;5.60;97425.00;;;;8383706;28;20315;-73
2021/12/14 21:03:38;;;;;;;22.20;7.60;;;;;5.60;97423.00;;;;8382469;28;20328;-76
2021/12/14 21:07:43;;;;;;;27.53;7.47;;;;;5.60;97414.00;;;;8384671;28;20343;-73